Time;durP1;ratioP1;P1;durP2;ratioP2;P2;SDS_P1;SDS_P2;PMS_P1;PMS_P2;Temp;Humidity;BMP_temperature;BMP_pressure;BME280_temperature;BME280_humidity;BME280_pressure;Samples;Min_cycle;Max_cycle;Signal;HPM_P1;HPM_P2
2021/12/09 00:01:12;;;;;;;47.87;26.50;;;1.70;99.90;;;;;;5063824;28;20516;-96
2021/12/09 00:03:40;;;;;;;50.93;25.83;;;1.70;99.90;;;;;;5062654;28;20241;-96
2021/12/09 00:06:09;;;;;;;43.37;25.10;;;1.60;99.90;;;;;;5062373;28;20175;-96
2021/12/09 00:08:37;;;;;;;46.50;25.53;;;1.60;99.90;;;;;;5064690;28;20189;-96
2021/12/09 00:11:20;;;;;;;47.40;25.10;;;1.60;99.90;;;;;;5064339;28;20184;-96
2021/12/09 00:13:47;;;;;;;46.03;25.73;;;1.60;99.90;;;;;;5061333;28;20296;-96
2021/12/09 00:16:13;;;;;;;45.20;25.87;;;1.70;99.90;;;;;;5063840;28;20599;-96
2021/12/09 00:18:39;;;;;;;47.63;26.70;;;1.60;99.90;;;;;;5066187;28;20188;-96
2021/12/09 00:21:22;;;;;;;44.70;25.30;;;1.60;99.90;;;;;;5066514;28;20272;-96
2021/12/09 00:23:47;;;;;;;49.27;25.47;;;1.60;99.90;;;;;;5063452;28;20187;-96
2021/12/09 00:26:13;;;;;;;50.17;26.57;;;1.60;99.90;;;;;;5065902;28;20604;-96
2021/12/09 00:28:39;;;;;;;47.10;25.90;;;1.60;99.90;;;;;;5065474;28;20205;-96
2021/12/09 00:31:06;;;;;;;51.17;26.47;;;1.60;99.90;;;;;;5066906;28;20184;-96
2021/12/09 00:33:32;;;;;;;48.03;26.90;;;1.60;99.90;;;;;;5066608;28;20205;-96
2021/12/09 00:36:00;;;;;;;48.17;27.17;;;1.60;99.90;;;;;;5066320;28;20208;-95
2021/12/09 00:38:37;;;;;;;47.33;26.90;;;1.50;99.90;;;;;;5064704;28;20185;-96
2021/12/09 00:41:12;;;;;;;45.20;24.80;;;1.50;99.90;;;;;;5063843;28;20172;-96
2021/12/09 00:43:39;;;;;;;45.20;25.53;;;1.50;99.90;;;;;;5064867;28;20174;-96
2021/12/09 00:46:05;;;;;;;49.77;26.80;;;1.60;99.90;;;;;;5047222;28;20614;-96
2021/12/09 00:48:32;;;;;;;50.00;26.77;;;1.50;99.90;;;;;;5045087;28;20170;-96
2021/12/09 00:50:59;;;;;;;46.87;25.40;;;1.50;99.90;;;;;;5044242;28;20554;-96
2021/12/09 00:53:25;;;;;;;48.33;25.30;;;1.50;99.90;;;;;;5044904;28;20177;-96
2021/12/09 00:55:50;;;;;;;46.23;26.67;;;1.50;99.90;;;;;;5043810;28;20186;-96
2021/12/09 00:58:16;;;;;;;50.73;28.07;;;1.50;99.90;;;;;;5043853;28;20240;-96
2021/12/09 01:00:47;;;;;;;48.53;26.70;;;1.50;99.90;;;;;;5042670;28;20186;-96
2021/12/09 01:03:14;;;;;;;45.60;24.27;;;1.50;99.90;;;;;;5045135;28;20228;-96
2021/12/09 01:05:40;;;;;;;44.17;24.80;;;1.50;99.90;;;;;;5045678;28;20188;-96
2021/12/09 01:08:06;;;;;;;46.00;24.37;;;1.50;99.90;;;;;;5044545;28;20535;-96
2021/12/09 01:10:33;;;;;;;46.23;25.27;;;1.40;99.90;;;;;;5045138;28;20624;-96
2021/12/09 01:13:00;;;;;;;46.03;25.33;;;1.40;99.90;;;;;;5047191;28;20192;-96
2021/12/09 01:15:26;;;;;;;41.87;23.97;;;1.40;99.90;;;;;;5056455;28;20220;-96
2021/12/09 01:17:52;;;;;;;45.90;24.73;;;1.40;99.90;;;;;;5064867;28;20605;-96
2021/12/09 01:20:20;;;;;;;46.13;24.87;;;1.40;99.90;;;;;;5064048;28;20177;-96
2021/12/09 01:22:47;;;;;;;41.67;24.70;;;1.40;99.90;;;;;;5065927;28;20250;-96
2021/12/09 01:25:18;;;;;;;44.13;24.83;;;1.40;99.90;;;;;;5082015;28;20169;-96
2021/12/09 01:27:47;;;;;;;45.33;25.23;;;1.40;99.90;;;;;;5063614;28;20178;-96
2021/12/09 01:30:17;;;;;;;43.53;24.20;;;1.40;99.90;;;;;;5064138;28;20182;-96
2021/12/09 01:32:51;;;;;;;46.43;25.80;;;1.40;99.90;;;;;;5063962;28;20170;-96
2021/12/09 01:35:23;;;;;;;45.57;25.43;;;1.40;99.90;;;;;;5063445;28;20213;-96
2021/12/09 01:37:54;;;;;;;50.43;25.40;;;1.40;99.90;;;;;;5062742;28;20245;-96
2021/12/09 01:40:21;;;;;;;47.80;25.80;;;1.30;99.90;;;;;;5063252;28;20169;-96
2021/12/09 01:43:00;;;;;;;47.90;25.47;;;1.30;99.90;;;;;;5064754;28;20177;-96
2021/12/09 01:45:27;;;;;;;52.40;25.47;;;1.30;99.90;;;;;;5065395;28;20645;-96
2021/12/09 01:47:53;;;;;;;45.80;25.77;;;1.30;99.90;;;;;;5065817;28;20189;-96
2021/12/09 01:50:20;;;;;;;50.43;26.47;;;1.30;99.90;;;;;;5065067;28;20491;-96
2021/12/09 01:52:49;;;;;;;55.40;26.37;;;1.30;99.90;;;;;;5064302;28;20188;-96
2021/12/09 01:55:20;;;;;;;45.93;24.90;;;1.30;99.90;;;;;;5079812;28;20212;-96
2021/12/09 01:57:48;;;;;;;47.93;25.73;;;1.30;99.90;;;;;;5097210;28;20214;-96
2021/12/09 02:00:19;;;;;;;50.10;25.53;;;1.30;99.90;;;;;;5082710;28;20214;-96
2021/12/09 02:02:45;;;;;;;50.07;25.50;;;1.30;99.90;;;;;;5083169;28;20221;-96
2021/12/09 02:05:13;;;;;;;47.20;25.70;;;1.30;99.90;;;;;;5083415;28;20282;-96
2021/12/09 02:07:40;;;;;;;43.77;24.67;;;1.30;99.90;;;;;;5083542;28;20242;-96
2021/12/09 02:10:10;;;;;;;44.27;25.07;;;1.30;99.90;;;;;;5083525;28;20185;-96
2021/12/09 02:12:37;;;;;;;48.17;26.73;;;1.30;99.90;;;;;;5083383;28;20226;-96
2021/12/09 02:15:04;;;;;;;46.60;25.73;;;1.30;99.90;;;;;;5073176;28;20221;-96
2021/12/09 02:17:31;;;;;;;46.40;24.87;;;1.30;99.90;;;;;;5063603;28;20314;-96
2021/12/09 02:19:59;;;;;;;49.27;26.33;;;1.30;99.90;;;;;;5064289;28;20192;-96
2021/12/09 02:22:27;;;;;;;51.07;26.07;;;1.30;99.90;;;;;;5063400;28;20183;-96
2021/12/09 02:24:56;;;;;;;48.13;26.07;;;1.30;99.90;;;;;;5061716;28;20170;-96
2021/12/09 02:27:23;;;;;;;47.37;24.87;;;1.30;99.90;;;;;;5063983;28;20179;-96
2021/12/09 02:29:51;;;;;;;45.93;25.63;;;1.30;99.90;;;;;;5062166;28;20180;-96
2021/12/09 02:32:20;;;;;;;46.27;25.53;;;1.30;99.90;;;;;;5062854;28;20607;-96
2021/12/09 02:34:46;;;;;;;50.20;26.50;;;1.30;99.90;;;;;;5078137;28;20205;-96
2021/12/09 02:37:13;;;;;;;44.43;24.43;;;1.30;99.90;;;;;;5063433;28;20180;-96
2021/12/09 02:39:41;;;;;;;44.10;24.67;;;1.30;99.90;;;;;;5061251;28;20220;-96
2021/12/09 02:42:12;;;;;;;49.53;25.53;;;1.30;99.90;;;;;;5061915;28;20270;-96
2021/12/09 02:44:38;;;;;;;47.93;25.67;;;1.40;99.90;;;;;;5061614;28;20196;-96
2021/12/09 02:47:05;;;;;;;46.87;25.17;;;1.40;99.90;;;;;;5060878;28;20269;-96
2021/12/09 02:49:32;;;;;;;44.57;24.53;;;1.30;99.90;;;;;;5061712;28;20180;-96
2021/12/09 02:52:30;;;;;;;52.00;25.83;;;1.30;99.90;;;;;;5061495;28;20200;-96
2021/12/09 02:54:57;;;;;;;43.97;24.83;;;1.30;99.90;;;;;;5078230;28;20286;-95
2021/12/09 02:57:24;;;;;;;43.13;24.20;;;1.30;99.90;;;;;;5078714;28;20173;-96
2021/12/09 02:59:50;;;;;;;47.13;24.97;;;1.30;99.90;;;;;;5062095;28;20198;-96
2021/12/09 03:02:16;;;;;;;43.80;24.90;;;1.30;99.90;;;;;;5077422;28;20678;-96
2021/12/09 03:04:48;;;;;;;41.50;23.77;;;1.20;99.90;;;;;;5078167;28;20229;-96
2021/12/09 03:07:30;;;;;;;49.73;25.07;;;1.20;99.90;;;;;;5060301;28;20224;-96
2021/12/09 03:10:17;;;;;;;46.03;24.57;;;1.20;99.90;;;;;;5061598;28;20174;-96
2021/12/09 03:12:57;;;;;;;48.63;26.17;;;1.20;99.90;;;;;;5061709;28;20177;-96
2021/12/09 03:15:23;;;;;;;48.07;25.67;;;1.30;99.90;;;;;;5060516;28;20212;-96
2021/12/09 03:17:49;;;;;;;48.57;25.83;;;1.30;99.90;;;;;;5060581;28;20185;-95
2021/12/09 03:20:17;;;;;;;50.80;25.20;;;1.20;99.90;;;;;;5060534;28;20182;-96
2021/12/09 03:22:46;;;;;;;45.63;25.17;;;1.20;99.90;;;;;;5060788;28;20185;-96
2021/12/09 03:25:14;;;;;;;48.57;24.47;;;1.20;99.90;;;;;;5062055;28;20173;-96
2021/12/09 03:27:40;;;;;;;45.87;24.40;;;1.20;99.90;;;;;;5467378;22;20207;-94
2021/12/09 03:30:11;;;;;;;43.53;23.87;;;1.20;99.90;;;;;;5054891;28;20233;-96
2021/12/09 03:32:37;;;;;;;49.40;25.13;;;1.20;99.90;;;;;;5043088;28;20178;-96
2021/12/09 03:35:03;;;;;;;46.40;24.40;;;1.20;99.90;;;;;;5044042;28;20213;-96
2021/12/09 03:37:29;;;;;;;45.87;24.93;;;1.20;99.90;;;;;;5043311;28;20203;-96
2021/12/09 03:40:02;;;;;;;48.07;25.37;;;1.20;99.90;;;;;;5043743;28;20190;-95
2021/12/09 03:42:30;;;;;;;46.07;23.87;;;1.20;99.90;;;;;;5043582;28;20182;-96
2021/12/09 03:44:56;;;;;;;44.23;24.97;;;1.20;99.90;;;;;;5042343;28;20177;-96
2021/12/09 03:47:25;;;;;;;48.77;24.37;;;1.20;99.90;;;;;;5040395;28;20613;-96
2021/12/09 03:50:07;;;;;;;45.23;24.20;;;1.20;99.90;;;;;;5042652;28;20177;-96
2021/12/09 03:52:33;;;;;;;45.87;24.90;;;1.20;99.90;;;;;;5032138;28;20261;-96
2021/12/09 03:54:59;;;;;;;45.90;24.50;;;1.20;99.90;;;;;;5046310;28;20209;-96
2021/12/09 03:57:25;;;;;;;43.40;24.27;;;1.20;99.90;;;;;;5028173;28;20180;-96
2021/12/09 03:59:53;;;;;;;43.07;23.60;;;1.20;99.90;;;;;;5046322;28;20178;-96
2021/12/09 04:02:20;;;;;;;43.30;23.57;;;1.20;99.90;;;;;;5045346;28;20252;-96
2021/12/09 04:04:46;;;;;;;41.77;23.23;;;1.20;99.90;;;;;;5045087;28;20204;-96
2021/12/09 04:07:12;;;;;;;46.77;24.90;;;1.20;99.90;;;;;;5044911;28;20174;-96
2021/12/09 04:09:42;;;;;;;44.83;23.93;;;1.20;99.90;;;;;;5045021;28;20185;-94
2021/12/09 04:12:09;;;;;;;42.43;24.10;;;1.20;99.90;;;;;;5043513;28;20171;-96
2021/12/09 04:14:35;;;;;;;47.60;24.97;;;1.30;99.90;;;;;;5043229;28;20217;-96
2021/12/09 04:17:01;;;;;;;44.20;24.73;;;1.20;99.90;;;;;;5043082;28;20269;-96
2021/12/09 04:19:27;;;;;;;45.87;24.73;;;1.20;99.90;;;;;;5044747;28;20182;-96
2021/12/09 04:21:53;;;;;;;44.70;24.80;;;1.20;99.90;;;;;;5044530;28;20238;-96
2021/12/09 04:24:20;;;;;;;47.33;24.37;;;1.30;99.90;;;;;;5045051;28;20178;-96
2021/12/09 04:26:49;;;;;;;48.27;25.43;;;1.20;99.90;;;;;;5044967;28;20211;-96
2021/12/09 04:29:16;;;;;;;50.33;26.30;;;1.20;99.90;;;;;;5044718;28;20225;-96
2021/12/09 04:31:47;;;;;;;46.53;25.73;;;1.20;99.90;;;;;;5061807;28;20736;-96
2021/12/09 04:34:13;;;;;;;46.50;24.83;;;1.20;99.90;;;;;;5062103;28;20207;-96
2021/12/09 04:36:39;;;;;;;50.00;25.17;;;1.20;99.90;;;;;;5060341;28;20181;-96
2021/12/09 04:39:06;;;;;;;48.70;25.70;;;1.20;99.90;;;;;;5044726;28;20176;-96
2021/12/09 04:41:39;;;;;;;47.67;26.33;;;1.20;99.90;;;;;;5043776;28;20178;-96
2021/12/09 04:44:07;;;;;;;49.80;25.77;;;1.20;99.90;;;;;;5044656;28;20261;-96
2021/12/09 04:46:33;;;;;;;48.97;26.30;;;1.20;99.90;;;;;;5045916;28;20197;-96
2021/12/09 04:48:59;;;;;;;53.37;26.77;;;1.20;99.90;;;;;;5044456;28;20178;-96
2021/12/09 04:51:36;;;;;;;52.83;26.23;;;1.20;99.90;;;;;;5045787;28;20208;-96
2021/12/09 04:54:03;;;;;;;47.90;25.97;;;1.10;99.90;;;;;;5043656;28;20203;-96
2021/12/09 04:56:29;;;;;;;49.30;25.47;;;1.20;99.90;;;;;;5060423;28;20180;-96
2021/12/09 04:58:55;;;;;;;52.00;25.90;;;1.20;99.90;;;;;;5045680;28;20187;-96
2021/12/09 05:01:22;;;;;;;48.47;25.53;;;1.10;99.90;;;;;;5045666;28;20182;-95
2021/12/09 05:03:49;;;;;;;51.97;26.70;;;1.10;99.90;;;;;;5045098;28;20188;-96
2021/12/09 05:06:16;;;;;;;56.40;27.73;;;1.10;99.90;;;;;;5045389;28;20188;-96
2021/12/09 05:08:48;;;;;;;48.97;25.23;;;1.10;99.90;;;;;;5044270;28;20204;-96
2021/12/09 05:11:33;;;;;;;51.33;26.67;;;1.10;99.90;;;;;;5043497;28;20576;-96
2021/12/09 05:13:59;;;;;;;49.77;25.87;;;1.10;99.90;;;;;;5059682;28;20727;-96
2021/12/09 05:16:25;;;;;;;49.93;25.93;;;1.10;99.90;;;;;;5062513;28;20206;-96
2021/12/09 05:18:57;;;;;;;50.60;25.53;;;1.10;99.90;;;;;;5043337;28;20543;-96
2021/12/09 05:21:36;;;;;;;50.00;26.23;;;1.10;99.90;;;;;;5044468;28;20196;-96
2021/12/09 05:24:03;;;;;;;52.73;27.27;;;1.10;99.90;;;;;;5061134;28;20595;-96
2021/12/09 05:26:35;;;;;;;57.83;27.60;;;1.10;99.90;;;;;;5061481;28;20182;-96
2021/12/09 05:29:00;;;;;;;55.93;26.60;;;1.10;99.90;;;;;;5045878;28;20233;-96
2021/12/09 05:34:14;;;;;;;53.00;25.63;;;1.20;99.90;;;;;;5082355;28;20260;-96
2021/12/09 05:36:40;;;;;;;55.57;27.57;;;1.20;99.90;;;;;;5062836;28;20177;-96
2021/12/09 05:39:09;;;;;;;56.67;28.27;;;1.20;99.90;;;;;;5063525;28;20181;-96
2021/12/09 05:41:37;;;;;;;54.30;27.53;;;1.20;99.90;;;;;;5064064;28;20183;-96
2021/12/09 05:44:08;;;;;;;53.33;27.67;;;1.20;99.90;;;;;;5063055;28;20236;-95
2021/12/09 05:46:37;;;;;;;54.63;28.07;;;1.20;99.90;;;;;;5062325;28;20200;-96
2021/12/09 05:49:04;;;;;;;52.53;27.03;;;1.20;99.90;;;;;;5061853;28;20175;-96
2021/12/09 05:51:43;;;;;;;53.60;26.43;;;1.20;99.90;;;;;;5063637;28;20177;-95
2021/12/09 05:54:09;;;;;;;57.67;26.97;;;1.20;99.90;;;;;;5063571;28;20287;-96
2021/12/09 05:56:36;;;;;;;58.07;29.57;;;1.10;99.90;;;;;;5063414;28;20169;-96
2021/12/09 05:59:03;;;;;;;58.87;28.50;;;1.20;99.90;;;;;;5047478;28;20238;-96
2021/12/09 06:01:31;;;;;;;59.80;29.60;;;1.10;99.90;;;;;;5063248;28;20264;-96
2021/12/09 06:03:57;;;;;;;55.17;28.00;;;1.10;99.90;;;;;;5064772;28;20569;-94
2021/12/09 06:06:23;;;;;;;54.17;27.07;;;1.10;99.90;;;;;;5062256;28;20181;-96
2021/12/09 06:08:50;;;;;;;60.90;28.57;;;1.10;99.90;;;;;;5061514;28;20179;-96
2021/12/09 06:11:16;;;;;;;52.43;27.40;;;1.10;99.90;;;;;;5063920;28;20268;-96
2021/12/09 06:13:44;;;;;;;59.20;29.37;;;1.10;99.90;;;;;;5060606;28;20164;-96
2021/12/09 06:16:10;;;;;;;52.33;26.77;;;1.10;99.90;;;;;;5060003;28;20187;-96
2021/12/09 06:18:36;;;;;;;60.23;28.83;;;1.20;99.90;;;;;;5059344;28;20173;-96
2021/12/09 06:21:08;;;;;;;60.03;29.30;;;1.20;99.90;;;;;;5059625;28;20180;-96
2021/12/09 06:23:35;;;;;;;58.10;27.33;;;1.20;99.90;;;;;;5059995;28;20165;-96
2021/12/09 06:26:01;;;;;;;57.00;29.37;;;1.20;99.90;;;;;;5060053;28;20174;-96
2021/12/09 06:28:26;;;;;;;58.37;28.27;;;1.20;99.90;;;;;;5058845;28;20301;-96
2021/12/09 06:30:52;;;;;;;57.47;26.97;;;1.20;99.90;;;;;;5033224;28;20175;-94
2021/12/09 06:33:20;;;;;;;58.90;29.07;;;1.20;99.90;;;;;;5043426;28;20181;-95
2021/12/09 06:35:46;;;;;;;56.73;29.57;;;1.30;99.90;;;;;;5049546;28;20205;-94
2021/12/09 06:38:15;;;;;;;58.23;29.37;;;1.20;99.90;;;;;;5054827;28;20185;-95
2021/12/09 06:40:43;;;;;;;64.50;30.10;;;1.20;99.90;;;;;;5039090;28;20183;-95
2021/12/09 06:43:18;;;;;;;65.83;28.50;;;1.20;99.90;;;;;;5039229;28;20266;-96
2021/12/09 06:45:49;;;;;;;58.97;28.83;;;1.20;99.90;;;;;;5037977;28;20168;-95
2021/12/09 06:48:15;;;;;;;59.80;28.00;;;1.20;99.90;;;;;;5038861;28;20274;-93
2021/12/09 06:50:41;;;;;;;60.57;30.10;;;1.20;99.90;;;;;;5033998;28;20166;-93
2021/12/09 06:53:14;;;;;;;65.17;31.53;;;1.20;99.90;;;;;;5053660;28;20185;-95
2021/12/09 06:55:41;;;;;;;57.80;28.70;;;1.20;99.90;;;;;;5054448;28;20289;-94
2021/12/09 06:58:29;;;;;;;60.43;28.57;;;1.20;99.90;;;;;;5059040;28;20661;-95
2021/12/09 07:01:02;;;;;;;61.20;28.60;;;1.20;99.90;;;;;;5046069;28;20247;-96
2021/12/09 07:03:47;;;;;;;61.40;29.73;;;1.20;99.90;;;;;;5040013;28;20189;-96
2021/12/09 07:06:16;;;;;;;66.03;29.33;;;1.20;99.90;;;;;;5040891;28;20170;-96
2021/12/09 07:08:47;;;;;;;59.07;28.13;;;1.10;99.90;;;;;;5042700;28;20231;-95
2021/12/09 07:11:16;;;;;;;58.67;28.77;;;1.10;99.90;;;;;;5040909;28;20176;-96
2021/12/09 07:13:45;;;;;;;59.93;29.77;;;1.20;99.90;;;;;;5041737;28;20177;-96
2021/12/09 07:16:12;;;;;;;64.97;31.50;;;1.10;99.90;;;;;;5043229;28;20608;-96
2021/12/09 07:18:39;;;;;;;59.80;28.27;;;1.10;99.90;;;;;;5038232;28;20187;-95
2021/12/09 07:21:06;;;;;;;57.30;29.73;;;1.10;99.90;;;;;;5040306;28;20184;-96
2021/12/09 07:23:33;;;;;;;61.13;29.60;;;1.10;99.90;;;;;;5022105;28;20184;-96
2021/12/09 07:26:00;;;;;;;63.83;30.83;;;1.10;99.90;;;;;;5039028;28;20190;-96
2021/12/09 07:28:27;;;;;;;63.00;28.63;;;1.10;99.90;;;;;;5052435;28;20665;-95
2021/12/09 07:30:54;;;;;;;62.20;29.40;;;1.10;99.90;;;;;;5039063;28;20182;-96
2021/12/09 07:33:23;;;;;;;57.23;29.10;;;1.10;99.90;;;;;;5040287;28;20184;-96
2021/12/09 07:35:50;;;;;;;60.07;29.40;;;1.10;99.90;;;;;;5022685;28;20251;-96
2021/12/09 07:38:16;;;;;;;59.23;29.80;;;1.10;99.90;;;;;;5039122;28;20210;-96
2021/12/09 07:40:42;;;;;;;62.53;29.63;;;1.10;99.90;;;;;;5039033;28;20179;-95
2021/12/09 07:43:09;;;;;;;59.67;29.83;;;1.10;99.90;;;;;;5040106;28;20186;-96
2021/12/09 07:45:37;;;;;;;65.23;29.10;;;1.20;99.90;;;;;;5024872;28;20192;-96
2021/12/09 07:48:03;;;;;;;63.40;30.30;;;1.10;99.90;;;;;;5044750;28;20194;-96
2021/12/09 07:50:31;;;;;;;63.40;30.30;;;1.20;99.90;;;;;;5047291;28;20188;-96
2021/12/09 07:52:58;;;;;;;59.70;29.27;;;1.20;99.90;;;;;;5046928;28;20185;-93
2021/12/09 07:55:26;;;;;;;61.10;30.73;;;1.10;99.90;;;;;;5046085;28;20641;-96
2021/12/09 07:57:52;;;;;;;61.60;28.27;;;1.10;99.90;;;;;;5043865;28;20185;-96
2021/12/09 08:00:27;;;;;;;59.30;30.07;;;1.10;99.90;;;;;;5038629;28;20189;-96
2021/12/09 08:02:55;;;;;;;63.13;29.63;;;1.20;99.90;;;;;;5018908;28;20185;-94
2021/12/09 08:05:23;;;;;;;63.77;30.73;;;1.20;99.90;;;;;;5017733;28;20179;-94
2021/12/09 08:07:49;;;;;;;60.60;29.93;;;1.20;99.90;;;;;;5017409;28;20197;-94
2021/12/09 08:10:16;;;;;;;57.87;30.13;;;1.20;99.90;;;;;;5024745;28;20201;-96
2021/12/09 08:12:44;;;;;;;64.23;31.20;;;1.20;99.90;;;;;;5022517;28;20524;-96
2021/12/09 08:15:12;;;;;;;60.13;29.87;;;1.20;99.90;;;;;;5018045;28;20649;-96
2021/12/09 08:20:29;;;;;;;60.07;30.27;;;1.20;99.90;;;;;;5036542;28;20212;-95
2021/12/09 08:23:05;;;;;;;61.97;31.00;;;1.20;99.90;;;;;;5017596;28;20269;-96
2021/12/09 08:25:31;;;;;;;64.03;30.67;;;1.20;99.90;;;;;;5018559;28;20982;-96
2021/12/09 08:27:57;;;;;;;62.10;30.23;;;1.20;99.90;;;;;;5019447;28;20185;-96
2021/12/09 08:30:25;;;;;;;59.20;30.80;;;1.20;99.90;;;;;;5035556;28;20186;-96
2021/12/09 08:32:56;;;;;;;60.13;30.67;;;1.20;99.90;;;;;;5035831;28;20237;-95
2021/12/09 08:35:22;;;;;;;65.13;31.63;;;1.30;99.90;;;;;;5048705;28;20216;-96
2021/12/09 08:37:51;;;;;;;58.03;29.60;;;1.30;99.90;;;;;;5048832;28;20249;-96
2021/12/09 08:40:20;;;;;;;62.83;31.10;;;1.30;99.90;;;;;;5066671;28;20196;-96
2021/12/09 08:42:49;;;;;;;63.67;30.83;;;1.30;99.90;;;;;;5067251;28;20177;-96
2021/12/09 08:45:16;;;;;;;63.97;30.90;;;1.30;99.90;;;;;;5043934;28;20220;-93
2021/12/09 08:47:43;;;;;;;58.97;30.50;;;1.30;99.90;;;;;;5036595;28;20186;-95
2021/12/09 08:50:12;;;;;;;63.77;30.90;;;1.30;99.90;;;;;;5043156;28;20189;-96
2021/12/09 08:52:38;;;;;;;62.67;29.77;;;1.30;99.90;;;;;;5024835;28;20187;-96
2021/12/09 08:55:07;;;;;;;61.13;30.23;;;1.40;99.90;;;;;;5029504;28;20218;-96
2021/12/09 08:57:33;;;;;;;65.83;31.60;;;1.40;99.90;;;;;;5029820;28;20178;-96
2021/12/09 08:59:59;;;;;;;61.80;30.73;;;1.40;99.90;;;;;;5062814;28;20181;-96
2021/12/09 09:02:36;;;;;;;57.93;30.47;;;1.40;99.90;;;;;;5065055;28;20258;-96
2021/12/09 09:07:52;;;;;;;59.50;30.20;;;1.30;99.90;;;;;;5073972;28;20233;-96
2021/12/09 09:13:24;;;;;;;62.23;30.23;;;1.30;99.90;;;;;;5123676;22;20248;-96
2021/12/09 09:16:53;;;;;;;69.40;31.77;;;1.30;99.90;;;;;;5107870;28;20251;-95
2021/12/09 09:22:20;;;;;;;65.13;31.50;;;1.30;99.90;;;;;;5128637;22;20231;-95
2021/12/09 09:24:54;;;;;;;68.20;32.47;;;1.30;99.90;;;;;;5035145;28;20261;-96
2021/12/09 09:27:20;;;;;;;71.07;32.87;;;1.30;99.90;;;;;;5060323;28;20184;-94
2021/12/09 09:29:46;;;;;;;67.93;32.17;;;1.30;99.90;;;;;;5061817;28;20641;-96
2021/12/09 09:32:12;;;;;;;68.20;31.87;;;1.30;99.90;;;;;;5057710;28;20181;-96
2021/12/09 09:35:11;;;;;;;67.97;33.70;;;1.30;99.90;;;;;;5070090;28;20220;-94
2021/12/09 09:38:41;;;;;;;64.70;30.87;;;1.30;99.90;;;;;;5067399;28;20215;-96
2021/12/09 09:41:47;;;;;;;63.00;31.47;;;1.30;99.90;;;;;;5092875;28;20163;-96
2021/12/09 09:44:57;;;;;;;72.00;32.20;;;1.30;99.90;;;;;;5065007;28;20203;-96
2021/12/09 17:07:48;;;;;;;78.70;42.90;;;2.00;99.90;;;;;;5069003;27;20674;-96
2021/12/09 17:10:16;;;;;;;76.83;39.53;;;2.00;99.90;;;;;;5067364;28;20216;-95
2021/12/09 17:12:42;;;;;;;82.00;39.93;;;2.00;99.90;;;;;;5067621;28;20189;-94
2021/12/09 17:15:11;;;;;;;74.07;38.27;;;2.00;99.90;;;;;;5068379;28;20538;-95
2021/12/09 17:17:37;;;;;;;84.37;40.07;;;2.00;99.90;;;;;;5066139;28;20196;-94
2021/12/09 17:20:07;;;;;;;82.10;39.53;;;2.00;99.90;;;;;;5067610;28;20662;-96
2021/12/09 17:22:33;;;;;;;80.43;39.57;;;2.00;99.90;;;;;;5067118;28;20255;-96
2021/12/09 17:25:00;;;;;;;87.70;41.10;;;2.00;99.90;;;;;;5068376;28;20227;-95
2021/12/09 17:27:27;;;;;;;85.50;40.63;;;2.00;99.90;;;;;;5066755;28;20216;-95
2021/12/09 17:30:05;;;;;;;77.57;39.13;;;2.00;99.90;;;;;;5066215;28;20215;-96
2021/12/09 17:32:31;;;;;;;81.13;38.77;;;2.00;99.90;;;;;;5068134;28;20184;-96
2021/12/09 17:34:57;;;;;;;78.93;38.63;;;1.90;99.90;;;;;;5069012;28;20245;-96
2021/12/09 17:37:23;;;;;;;81.33;39.60;;;1.90;99.90;;;;;;5068071;28;20676;-96
2021/12/09 17:39:49;;;;;;;82.10;38.13;;;1.90;99.90;;;;;;5069092;28;20234;-95
2021/12/09 17:42:14;;;;;;;84.17;39.07;;;1.80;99.90;;;;;;5069451;28;20185;-96
2021/12/09 17:44:41;;;;;;;77.27;37.60;;;1.80;99.90;;;;;;5068335;28;20195;-96
2021/12/09 17:47:11;;;;;;;76.70;38.23;;;1.80;99.90;;;;;;5068200;28;20213;-96
2021/12/09 17:49:41;;;;;;;79.33;38.57;;;1.80;99.90;;;;;;5067234;28;20207;-96
2021/12/09 17:52:16;;;;;;;77.13;35.47;;;1.80;99.90;;;;;;5067101;28;20197;-94
2021/12/09 17:54:42;;;;;;;75.07;36.57;;;1.80;99.90;;;;;;5067021;28;20185;-95
2021/12/09 17:57:08;;;;;;;71.73;35.03;;;1.70;99.90;;;;;;5068071;28;20486;-96
2021/12/09 17:59:35;;;;;;;70.87;34.60;;;1.70;99.90;;;;;;5066663;28;20212;-96
2021/12/09 18:02:01;;;;;;;73.07;34.70;;;1.60;99.90;;;;;;5068536;28;20219;-96
2021/12/09 18:04:27;;;;;;;79.20;36.63;;;1.60;99.90;;;;;;5068585;28;20199;-96
2021/12/09 18:06:53;;;;;;;76.00;36.33;;;1.50;99.90;;;;;;5079556;28;20240;-96
2021/12/09 18:09:20;;;;;;;75.07;35.97;;;1.60;99.90;;;;;;5075323;28;20196;-96
2021/12/09 18:11:46;;;;;;;75.07;35.93;;;1.60;99.90;;;;;;5073984;28;20235;-96
2021/12/09 18:14:12;;;;;;;76.27;35.53;;;1.50;99.90;;;;;;5075166;28;20305;-95
2021/12/09 18:16:42;;;;;;;73.57;35.60;;;1.40;99.90;;;;;;5075202;28;20603;-96
2021/12/09 18:19:09;;;;;;;73.07;35.30;;;1.40;99.90;;;;;;5075078;28;20185;-96
2021/12/09 18:21:37;;;;;;;82.20;38.10;;;1.40;99.90;;;;;;5075144;28;20231;-96
2021/12/09 18:24:03;;;;;;;71.90;35.57;;;1.40;99.90;;;;;;5073530;28;20185;-95
2021/12/09 18:26:30;;;;;;;74.60;36.47;;;1.40;99.90;;;;;;5075174;28;20298;-96
2021/12/09 18:28:58;;;;;;;71.83;35.60;;;1.40;99.90;;;;;;5074591;28;20193;-96
2021/12/09 18:31:24;;;;;;;82.67;39.23;;;1.40;99.90;;;;;;5074063;28;20616;-96
2021/12/09 18:33:52;;;;;;;85.07;41.40;;;1.40;99.90;;;;;;5074591;28;20289;-96
2021/12/09 18:36:20;;;;;;;74.37;36.60;;;1.40;99.90;;;;;;5073115;28;20647;-96
2021/12/09 18:38:52;;;;;;;64.60;32.90;;;1.40;99.90;;;;;;5074412;28;20232;-96
2021/12/09 18:41:19;;;;;;;63.60;32.80;;;1.50;99.90;;;;;;5075105;28;20196;-96
2021/12/09 18:43:46;;;;;;;65.60;33.70;;;1.50;99.90;;;;;;5075232;28;20189;-96
2021/12/09 18:46:12;;;;;;;64.93;32.17;;;1.50;99.90;;;;;;5073888;28;20212;-96
2021/12/09 18:48:38;;;;;;;65.10;32.23;;;1.50;99.90;;;;;;5074401;28;20196;-95
2021/12/09 18:51:10;;;;;;;61.87;32.37;;;1.50;99.90;;;;;;5074347;28;20189;-95
2021/12/09 18:53:36;;;;;;;66.50;33.50;;;1.40;99.90;;;;;;5074444;28;20276;-96
2021/12/09 18:56:03;;;;;;;70.63;34.97;;;1.50;99.90;;;;;;5075765;28;20664;-96
2021/12/09 18:58:29;;;;;;;67.57;32.17;;;1.50;99.90;;;;;;5074671;28;20188;-96
2021/12/09 19:00:56;;;;;;;71.83;31.80;;;1.50;99.90;;;;;;5075484;28;20193;-96
2021/12/09 19:03:23;;;;;;;72.37;33.77;;;1.50;99.90;;;;;;5075135;28;20621;-96
2021/12/09 19:05:49;;;;;;;65.00;32.97;;;1.50;99.90;;;;;;5075362;28;20254;-96
2021/12/09 19:08:17;;;;;;;70.07;34.10;;;1.50;99.90;;;;;;5073606;28;20195;-96
2021/12/09 19:10:45;;;;;;;74.27;34.17;;;1.50;99.90;;;;;;5073957;28;20201;-96
2021/12/09 19:13:13;;;;;;;69.03;32.97;;;1.60;99.90;;;;;;5074716;28;20220;-96
2021/12/09 19:15:41;;;;;;;69.13;33.33;;;1.50;99.90;;;;;;5073632;28;20674;-96
2021/12/09 19:18:24;;;;;;;61.47;31.50;;;1.60;99.90;;;;;;5075686;28;20235;-96
2021/12/09 19:20:59;;;;;;;73.93;33.33;;;1.60;99.90;;;;;;5074569;28;20330;-96
2021/12/09 19:23:28;;;;;;;68.20;33.57;;;1.60;99.90;;;;;;5074588;28;20546;-96
2021/12/09 19:25:56;;;;;;;68.93;32.13;;;1.60;99.90;;;;;;5070944;28;20247;-96
2021/12/09 19:28:22;;;;;;;67.77;32.00;;;1.60;99.90;;;;;;5074483;28;20263;-96
2021/12/09 19:30:49;;;;;;;68.07;32.97;;;1.60;99.90;;;;;;5073092;28;20193;-96
2021/12/09 19:33:15;;;;;;;70.70;34.13;;;1.60;99.90;;;;;;5073904;28;20527;-95
2021/12/09 19:35:41;;;;;;;65.23;34.30;;;1.70;99.90;;;;;;5072887;28;20181;-95
2021/12/09 19:38:09;;;;;;;74.23;35.87;;;1.60;99.90;;;;;;5072972;28;20193;-96
2021/12/09 19:40:38;;;;;;;72.87;35.33;;;1.60;99.90;;;;;;5073338;28;20193;-96
2021/12/09 19:43:05;;;;;;;74.50;35.23;;;1.60;99.90;;;;;;5072877;28;20196;-96
2021/12/09 19:45:31;;;;;;;76.20;35.50;;;1.60;99.90;;;;;;5073189;28;20205;-95
2021/12/09 19:47:58;;;;;;;72.03;33.80;;;1.60;99.90;;;;;;5071704;28;20287;-96
2021/12/09 19:50:24;;;;;;;72.27;36.33;;;1.70;99.90;;;;;;5072636;28;20180;-96
2021/12/09 19:52:52;;;;;;;81.37;37.03;;;1.60;99.90;;;;;;5072557;28;20189;-96
2021/12/09 19:55:20;;;;;;;71.90;34.57;;;1.60;99.90;;;;;;5072978;28;20222;-95
2021/12/09 19:57:49;;;;;;;72.40;32.30;;;1.60;99.90;;;;;;5076048;28;20188;-95
2021/12/09 20:00:17;;;;;;;68.50;33.13;;;1.70;99.90;;;;;;5074854;28;20180;-95
2021/12/09 20:02:43;;;;;;;65.73;32.83;;;1.70;99.90;;;;;;5075317;28;20177;-94
2021/12/09 20:05:09;;;;;;;68.20;34.10;;;1.70;99.90;;;;;;5073039;28;20264;-94
2021/12/09 20:07:36;;;;;;;68.80;34.13;;;1.70;99.90;;;;;;5073404;28;20343;-94
2021/12/09 20:10:04;;;;;;;64.93;32.27;;;1.70;99.90;;;;;;5074497;28;20184;-94
2021/12/09 20:12:29;;;;;;;66.23;32.50;;;1.70;99.90;;;;;;5074460;28;20226;-93
2021/12/09 20:14:55;;;;;;;68.73;34.50;;;1.70;99.90;;;;;;5074728;28;20169;-94
2021/12/09 20:17:21;;;;;;;70.20;33.97;;;1.80;99.90;;;;;;5074011;28;20177;-93
2021/12/09 20:19:46;;;;;;;64.60;32.33;;;1.80;99.90;;;;;;5074132;28;20265;-94